Decoded Metar for KHBI (ASHEBORO MUNI in NC, USA) (IATA:HBI) | Meteo·Mobile Aviation Weather
aviador You're here:

KHBI Decoded Metar

ASHEBORO MUNI in NC, USA
Report Time2019-02-16 16:45:00
UTC Time2019-02-16 17:08:11
Flight Rules ifr IFR
Wind020° at 09 kt
W.Decomp.*RWY 03: 9.0 kt HW 0.3 kt LCW
W.Rank020° ranks 5
Current wind is above 020° avg. (5.6)
Visibility8047 m
Phenomena:Light Rain
Clouds:Overcast 008 Hf
Ceiling800 ft
Temp06°C (ISA -8)
Dew Point06°C (100% RH)
AAT1.8°C
QNH1010 hPa
Density Alt-20 ft
Elevation673 ft
Report Wrong Elevation
Raw Report
METAR KHBI 161645Z AUTO 02009KT 5SM -RA OVC008 06/06 A2983 RMK AO2
T00600060=

Extra information for KHBI:More info

Metar Taf Metar & Taf Last 4 Metars F.Rules Stats Wind Profile Meteogram Temp Stats Airport Information Weather charts Add Link Nearby VenuesMetar ALERT Operation Metar Decoded Social comments

AIRNAV info for KHBI